sensor_id;sensor_type;location;lat;lon;timestamp;pressure;altitude;pressure_sealevel;temperature
20736;BMP180;10528;52.124;5.196;2022-10-15T00:01:20;100632.00;;;18.50
20736;BMP180;10528;52.124;5.196;2022-10-15T00:03:47;100637.00;;;18.50
20736;BMP180;10528;52.124;5.196;2022-10-15T00:06:18;100631.00;;;18.50
20736;BMP180;10528;52.124;5.196;2022-10-15T00:08:46;100635.00;;;18.60
20736;BMP180;10528;52.124;5.196;2022-10-15T00:11:21;100628.00;;;18.60
20736;BMP180;10528;52.124;5.196;2022-10-15T00:13:49;100633.00;;;18.60
20736;BMP180;10528;52.124;5.196;2022-10-15T00:16:20;100624.00;;;18.60
20736;BMP180;10528;52.124;5.196;2022-10-15T00:18:48;100622.00;;;18.60
20736;BMP180;10528;52.124;5.196;2022-10-15T00:21:17;100632.00;;;18.70
20736;BMP180;10528;52.124;5.196;2022-10-15T00:23:46;100640.00;;;18.70
20736;BMP180;10528;52.124;5.196;2022-10-15T00:26:21;100641.00;;;18.70
20736;BMP180;10528;52.124;5.196;2022-10-15T00:28:51;100640.00;;;18.70
20736;BMP180;10528;52.124;5.196;2022-10-15T00:31:23;100629.00;;;18.70
20736;BMP180;10528;52.124;5.196;2022-10-15T00:33:55;100639.00;;;18.70
20736;BMP180;10528;52.124;5.196;2022-10-15T00:36:31;100627.00;;;18.70
20736;BMP180;10528;52.124;5.196;2022-10-15T00:38:59;100630.00;;;18.70
20736;BMP180;10528;52.124;5.196;2022-10-15T00:41:33;100622.00;;;18.80
20736;BMP180;10528;52.124;5.196;2022-10-15T00:46:50;100625.00;;;18.80
20736;BMP180;10528;52.124;5.196;2022-10-15T00:52:28;100612.00;;;18.80
20736;BMP180;10528;52.124;5.196;2022-10-15T00:55:09;100612.00;;;18.80
20736;BMP180;10528;52.124;5.196;2022-10-15T00:57:36;100611.00;;;18.80
20736;BMP180;10528;52.124;5.196;2022-10-15T01:00:10;100617.00;;;18.80
20736;BMP180;10528;52.124;5.196;2022-10-15T01:02:38;100613.00;;;18.80
20736;BMP180;10528;52.124;5.196;2022-10-15T01:05:07;100624.00;;;18.80
20736;BMP180;10528;52.124;5.196;2022-10-15T01:07:34;100623.00;;;18.80
20736;BMP180;10528;52.124;5.196;2022-10-15T01:10:02;100626.00;;;18.80
20736;BMP180;10528;52.124;5.196;2022-10-15T01:15:46;100614.00;;;18.70
20736;BMP180;10528;52.124;5.196;2022-10-15T01:18:41;100617.00;;;18.70
20736;BMP180;10528;52.124;5.196;2022-10-15T01:21:32;100611.00;;;18.70
20736;BMP180;10528;52.124;5.196;2022-10-15T01:32:53;100602.00;;;18.60
20736;BMP180;10528;52.124;5.196;2022-10-15T01:35:43;100592.00;;;18.60
20736;BMP180;10528;52.124;5.196;2022-10-15T01:38:19;100595.00;;;18.60
20736;BMP180;10528;52.124;5.196;2022-10-15T01:40:57;100595.00;;;18.60
20736;BMP180;10528;52.124;5.196;2022-10-15T01:43:47;100586.00;;;18.60
20736;BMP180;10528;52.124;5.196;2022-10-15T01:46:54;100593.00;;;18.60
20736;BMP180;10528;52.124;5.196;2022-10-15T01:49:32;100583.00;;;18.50
20736;BMP180;10528;52.124;5.196;2022-10-15T01:52:12;100578.00;;;18.50
20736;BMP180;10528;52.124;5.196;2022-10-15T01:54:41;100586.00;;;18.50
20736;BMP180;10528;52.124;5.196;2022-10-15T01:57:10;100578.00;;;18.50
20736;BMP180;10528;52.124;5.196;2022-10-15T01:59:40;100572.00;;;18.50
20736;BMP180;10528;52.124;5.196;2022-10-15T02:02:07;100567.00;;;18.50
20736;BMP180;10528;52.124;5.196;2022-10-15T02:04:34;100573.00;;;18.50
20736;BMP180;10528;52.124;5.196;2022-10-15T02:07:14;100573.00;;;18.50
20736;BMP180;10528;52.124;5.196;2022-10-15T02:12:42;100566.00;;;18.50
20736;BMP180;10528;52.124;5.196;2022-10-15T02:15:18;100564.00;;;18.50
20736;BMP180;10528;52.124;5.196;2022-10-15T02:18:08;100552.00;;;18.50
20736;BMP180;10528;52.124;5.196;2022-10-15T02:23:25;100552.00;;;18.50
20736;BMP180;10528;52.124;5.196;2022-10-15T02:25:58;100547.00;;;18.50
20736;BMP180;10528;52.124;5.196;2022-10-15T02:28:27;100553.00;;;18.50
20736;BMP180;10528;52.124;5.196;2022-10-15T02:30:56;100542.00;;;18.60
20736;BMP180;10528;52.124;5.196;2022-10-15T02:33:25;100550.00;;;18.60
20736;BMP180;10528;52.124;5.196;2022-10-15T02:35:54;100533.00;;;18.60
20736;BMP180;10528;52.124;5.196;2022-10-15T02:38:24;100537.00;;;18.60
20736;BMP180;10528;52.124;5.196;2022-10-15T02:40:53;100537.00;;;18.60
20736;BMP180;10528;52.124;5.196;2022-10-15T02:43:21;100530.00;;;18.60
20736;BMP180;10528;52.124;5.196;2022-10-15T02:45:49;100536.00;;;18.60
20736;BMP180;10528;52.124;5.196;2022-10-15T02:48:17;100534.00;;;18.60
20736;BMP180;10528;52.124;5.196;2022-10-15T02:50:45;100529.00;;;18.60
20736;BMP180;10528;52.124;5.196;2022-10-15T02:53:13;100523.00;;;18.60
20736;BMP180;10528;52.124;5.196;2022-10-15T02:55:41;100522.00;;;18.60
20736;BMP180;10528;52.124;5.196;2022-10-15T02:58:08;100519.00;;;18.60
20736;BMP180;10528;52.124;5.196;2022-10-15T03:00:35;100516.00;;;18.60
20736;BMP180;10528;52.124;5.196;2022-10-15T03:03:02;100511.00;;;18.60
20736;BMP180;10528;52.124;5.196;2022-10-15T03:05:29;100510.00;;;18.60
20736;BMP180;10528;52.124;5.196;2022-10-15T03:07:59;100508.00;;;18.50
20736;BMP180;10528;52.124;5.196;2022-10-15T03:10:27;100497.00;;;18.50
20736;BMP180;10528;52.124;5.196;2022-10-15T03:12:53;100502.00;;;18.50
20736;BMP180;10528;52.124;5.196;2022-10-15T03:15:21;100491.00;;;18.50
20736;BMP180;10528;52.124;5.196;2022-10-15T03:17:49;100491.00;;;18.40
20736;BMP180;10528;52.124;5.196;2022-10-15T03:20:16;100499.00;;;18.40
20736;BMP180;10528;52.124;5.196;2022-10-15T03:22:43;100497.00;;;18.40
20736;BMP180;10528;52.124;5.196;2022-10-15T03:25:10;100494.00;;;18.30
20736;BMP180;10528;52.124;5.196;2022-10-15T03:27:38;100504.00;;;18.30
20736;BMP180;10528;52.124;5.196;2022-10-15T03:30:17;100491.00;;;18.30
20736;BMP180;10528;52.124;5.196;2022-10-15T03:32:46;100502.00;;;18.30
20736;BMP180;10528;52.124;5.196;2022-10-15T03:35:14;100497.00;;;18.20
20736;BMP180;10528;52.124;5.196;2022-10-15T03:37:41;100491.00;;;18.20
20736;BMP180;10528;52.124;5.196;2022-10-15T03:40:09;100494.00;;;18.20
20736;BMP180;10528;52.124;5.196;2022-10-15T03:42:40;100482.00;;;18.10
20736;BMP180;10528;52.124;5.196;2022-10-15T03:45:08;100491.00;;;18.10
20736;BMP180;10528;52.124;5.196;2022-10-15T03:47:36;100495.00;;;18.10
20736;BMP180;10528;52.124;5.196;2022-10-15T03:50:03;100497.00;;;18.10
20736;BMP180;10528;52.124;5.196;2022-10-15T03:52:30;100495.00;;;18.00
20736;BMP180;10528;52.124;5.196;2022-10-15T03:54:58;100486.00;;;18.00
20736;BMP180;10528;52.124;5.196;2022-10-15T03:57:25;100487.00;;;17.90
20736;BMP180;10528;52.124;5.196;2022-10-15T03:59:58;100489.00;;;17.90
20736;BMP180;10528;52.124;5.196;2022-10-15T04:02:29;100481.00;;;17.90
20736;BMP180;10528;52.124;5.196;2022-10-15T04:04:56;100496.00;;;17.90
20736;BMP180;10528;52.124;5.196;2022-10-15T04:07:24;100493.00;;;17.90
20736;BMP180;10528;52.124;5.196;2022-10-15T04:09:51;100496.00;;;17.90
20736;BMP180;10528;52.124;5.196;2022-10-15T04:12:21;100497.00;;;17.90
20736;BMP180;10528;52.124;5.196;2022-10-15T04:14:48;100503.00;;;17.90
20736;BMP180;10528;52.124;5.196;2022-10-15T04:17:16;100509.00;;;17.80
20736;BMP180;10528;52.124;5.196;2022-10-15T04:19:43;100508.00;;;17.90
20736;BMP180;10528;52.124;5.196;2022-10-15T04:22:12;100511.00;;;17.90
20736;BMP180;10528;52.124;5.196;2022-10-15T04:24:45;100503.00;;;17.90
20736;BMP180;10528;52.124;5.196;2022-10-15T04:27:21;100508.00;;;17.90
20736;BMP180;10528;52.124;5.196;2022-10-15T04:29:49;100509.00;;;17.90
20736;BMP180;10528;52.124;5.196;2022-10-15T04:32:16;100514.00;;;17.90
20736;BMP180;10528;52.124;5.196;2022-10-15T04:34:45;100512.00;;;17.90
20736;BMP180;10528;52.124;5.196;2022-10-15T04:37:13;100519.00;;;17.90
20736;BMP180;10528;52.124;5.196;2022-10-15T04:39:40;100522.00;;;17.90
20736;BMP180;10528;52.124;5.196;2022-10-15T04:42:11;100519.00;;;17.90
20736;BMP180;10528;52.124;5.196;2022-10-15T04:44:39;100517.00;;;17.90
20736;BMP180;10528;52.124;5.196;2022-10-15T04:47:06;100516.00;;;18.00
20736;BMP180;10528;52.124;5.196;2022-10-15T04:49:32;100513.00;;;18.00
20736;BMP180;10528;52.124;5.196;2022-10-15T04:52:05;100508.00;;;18.00
20736;BMP180;10528;52.124;5.196;2022-10-15T04:54:54;100515.00;;;18.00
20736;BMP180;10528;52.124;5.196;2022-10-15T04:57:21;100498.00;;;18.10
20736;BMP180;10528;52.124;5.196;2022-10-15T04:59:48;100501.00;;;18.10
20736;BMP180;10528;52.124;5.196;2022-10-15T05:02:42;100514.00;;;18.10
20736;BMP180;10528;52.124;5.196;2022-10-15T05:05:20;100496.00;;;18.20
20736;BMP180;10528;52.124;5.196;2022-10-15T05:08:03;100507.00;;;18.20
20736;BMP180;10528;52.124;5.196;2022-10-15T05:10:36;100500.00;;;18.20
20736;BMP180;10528;52.124;5.196;2022-10-15T05:13:05;100501.00;;;18.20
20736;BMP180;10528;52.124;5.196;2022-10-15T05:15:34;100499.00;;;18.20
20736;BMP180;10528;52.124;5.196;2022-10-15T05:18:05;100494.00;;;18.20
20736;BMP180;10528;52.124;5.196;2022-10-15T05:20:41;100503.00;;;18.30
20736;BMP180;10528;52.124;5.196;2022-10-15T05:23:12;100496.00;;;18.30
20736;BMP180;10528;52.124;5.196;2022-10-15T05:25:42;100504.00;;;18.30
20736;BMP180;10528;52.124;5.196;2022-10-15T05:28:15;100509.00;;;18.30
20736;BMP180;10528;52.124;5.196;2022-10-15T05:30:42;100503.00;;;18.30
20736;BMP180;10528;52.124;5.196;2022-10-15T05:33:10;100498.00;;;18.30
20736;BMP180;10528;52.124;5.196;2022-10-15T05:35:37;100499.00;;;18.40
20736;BMP180;10528;52.124;5.196;2022-10-15T05:38:05;100501.00;;;18.40
20736;BMP180;10528;52.124;5.196;2022-10-15T05:40:32;100495.00;;;18.40
20736;BMP180;10528;52.124;5.196;2022-10-15T05:43:08;100496.00;;;18.40
20736;BMP180;10528;52.124;5.196;2022-10-15T05:45:35;100484.00;;;18.40
20736;BMP180;10528;52.124;5.196;2022-10-15T05:48:04;100487.00;;;18.50
20736;BMP180;10528;52.124;5.196;2022-10-15T05:50:31;100499.00;;;18.50
20736;BMP180;10528;52.124;5.196;2022-10-15T05:53:00;100496.00;;;18.50
20736;BMP180;10528;52.124;5.196;2022-10-15T05:55:40;100497.00;;;18.50
20736;BMP180;10528;52.124;5.196;2022-10-15T05:58:07;100487.00;;;18.50
20736;BMP180;10528;52.124;5.196;2022-10-15T06:00:35;100493.00;;;18.50
20736;BMP180;10528;52.124;5.196;2022-10-15T06:03:02;100493.00;;;18.60
20736;BMP180;10528;52.124;5.196;2022-10-15T06:05:30;100497.00;;;18.60
20736;BMP180;10528;52.124;5.196;2022-10-15T06:07:57;100495.00;;;18.60
20736;BMP180;10528;52.124;5.196;2022-10-15T06:10:24;100486.00;;;18.60
20736;BMP180;10528;52.124;5.196;2022-10-15T06:12:51;100499.00;;;18.60
20736;BMP180;10528;52.124;5.196;2022-10-15T06:15:18;100489.00;;;18.70
20736;BMP180;10528;52.124;5.196;2022-10-15T06:17:45;100487.00;;;18.70
20736;BMP180;10528;52.124;5.196;2022-10-15T06:20:12;100492.00;;;18.70
20736;BMP180;10528;52.124;5.196;2022-10-15T06:22:39;100496.00;;;18.70
20736;BMP180;10528;52.124;5.196;2022-10-15T06:25:07;100503.00;;;18.70
20736;BMP180;10528;52.124;5.196;2022-10-15T06:27:34;100497.00;;;18.80
20736;BMP180;10528;52.124;5.196;2022-10-15T06:30:02;100491.00;;;18.80
20736;BMP180;10528;52.124;5.196;2022-10-15T06:32:29;100492.00;;;18.80
20736;BMP180;10528;52.124;5.196;2022-10-15T06:34:56;100498.00;;;18.80
20736;BMP180;10528;52.124;5.196;2022-10-15T06:37:23;100505.00;;;18.80
20736;BMP180;10528;52.124;5.196;2022-10-15T06:39:53;100496.00;;;18.80
20736;BMP180;10528;52.124;5.196;2022-10-15T06:42:20;100490.00;;;18.90
20736;BMP180;10528;52.124;5.196;2022-10-15T06:44:47;100481.00;;;18.90
20736;BMP180;10528;52.124;5.196;2022-10-15T06:47:16;100487.00;;;18.90
20736;BMP180;10528;52.124;5.196;2022-10-15T06:49:44;100490.00;;;18.90
20736;BMP180;10528;52.124;5.196;2022-10-15T06:52:11;100497.00;;;18.90
20736;BMP180;10528;52.124;5.196;2022-10-15T06:54:38;100488.00;;;18.90
20736;BMP180;10528;52.124;5.196;2022-10-15T06:57:06;100500.00;;;19.00
20736;BMP180;10528;52.124;5.196;2022-10-15T06:59:33;100489.00;;;19.00
20736;BMP180;10528;52.124;5.196;2022-10-15T07:02:09;100492.00;;;19.00
20736;BMP180;10528;52.124;5.196;2022-10-15T07:04:36;100489.00;;;19.00
20736;BMP180;10528;52.124;5.196;2022-10-15T07:07:03;100497.00;;;19.00
20736;BMP180;10528;52.124;5.196;2022-10-15T07:09:30;100495.00;;;19.00
20736;BMP180;10528;52.124;5.196;2022-10-15T07:11:56;100501.00;;;19.00
20736;BMP180;10528;52.124;5.196;2022-10-15T07:14:23;100499.00;;;19.00
20736;BMP180;10528;52.124;5.196;2022-10-15T07:16:50;100501.00;;;19.10
20736;BMP180;10528;52.124;5.196;2022-10-15T07:19:17;100502.00;;;19.10
20736;BMP180;10528;52.124;5.196;2022-10-15T07:21:45;100509.00;;;19.10
20736;BMP180;10528;52.124;5.196;2022-10-15T07:24:12;100501.00;;;19.10
20736;BMP180;10528;52.124;5.196;2022-10-15T07:26:39;100509.00;;;19.10
20736;BMP180;10528;52.124;5.196;2022-10-15T07:29:06;100511.00;;;19.10
20736;BMP180;10528;52.124;5.196;2022-10-15T07:31:33;100503.00;;;19.20
20736;BMP180;10528;52.124;5.196;2022-10-15T07:34:00;100509.00;;;19.20
20736;BMP180;10528;52.124;5.196;2022-10-15T07:36:27;100507.00;;;19.20
20736;BMP180;10528;52.124;5.196;2022-10-15T07:38:54;100499.00;;;19.20
20736;BMP180;10528;52.124;5.196;2022-10-15T07:41:20;100499.00;;;19.20
20736;BMP180;10528;52.124;5.196;2022-10-15T07:43:50;100493.00;;;19.20
20736;BMP180;10528;52.124;5.196;2022-10-15T07:46:17;100497.00;;;19.20
20736;BMP180;10528;52.124;5.196;2022-10-15T07:48:44;100493.00;;;19.20
20736;BMP180;10528;52.124;5.196;2022-10-15T07:51:11;100499.00;;;19.30
20736;BMP180;10528;52.124;5.196;2022-10-15T07:53:38;100497.00;;;19.30
20736;BMP180;10528;52.124;5.196;2022-10-15T07:56:10;100495.00;;;19.30
20736;BMP180;10528;52.124;5.196;2022-10-15T07:58:39;100490.00;;;19.30
20736;BMP180;10528;52.124;5.196;2022-10-15T08:01:08;100482.00;;;19.40
20736;BMP180;10528;52.124;5.196;2022-10-15T08:03:36;100476.00;;;19.40
20736;BMP180;10528;52.124;5.196;2022-10-15T08:06:05;100469.00;;;19.40
20736;BMP180;10528;52.124;5.196;2022-10-15T08:08:34;100476.00;;;19.40
20736;BMP180;10528;52.124;5.196;2022-10-15T08:11:12;100467.00;;;19.50
20736;BMP180;10528;52.124;5.196;2022-10-15T08:13:40;100460.00;;;19.50
20736;BMP180;10528;52.124;5.196;2022-10-15T08:16:10;100465.00;;;19.50
20736;BMP180;10528;52.124;5.196;2022-10-15T08:18:38;100457.00;;;19.50
20736;BMP180;10528;52.124;5.196;2022-10-15T08:21:06;100469.00;;;19.50
20736;BMP180;10528;52.124;5.196;2022-10-15T08:23:34;100475.00;;;19.60
20736;BMP180;10528;52.124;5.196;2022-10-15T08:26:02;100475.00;;;19.60
20736;BMP180;10528;52.124;5.196;2022-10-15T08:28:31;100476.00;;;19.60
20736;BMP180;10528;52.124;5.196;2022-10-15T08:31:00;100469.00;;;19.60
20736;BMP180;10528;52.124;5.196;2022-10-15T08:33:34;100472.00;;;19.60
20736;BMP180;10528;52.124;5.196;2022-10-15T08:36:03;100465.00;;;19.70
20736;BMP180;10528;52.124;5.196;2022-10-15T08:38:31;100455.00;;;19.70
20736;BMP180;10528;52.124;5.196;2022-10-15T08:41:00;100453.00;;;19.70
20736;BMP180;10528;52.124;5.196;2022-10-15T08:43:36;100451.00;;;19.80
20736;BMP180;10528;52.124;5.196;2022-10-15T08:46:15;100449.00;;;19.80
20736;BMP180;10528;52.124;5.196;2022-10-15T08:48:52;100436.00;;;19.90
20736;BMP180;10528;52.124;5.196;2022-10-15T08:51:44;100440.00;;;19.90
20736;BMP180;10528;52.124;5.196;2022-10-15T08:54:16;100445.00;;;20.00
20736;BMP180;10528;52.124;5.196;2022-10-15T08:56:50;100427.00;;;20.10
20736;BMP180;10528;52.124;5.196;2022-10-15T08:59:35;100431.00;;;20.10
20736;BMP180;10528;52.124;5.196;2022-10-15T09:02:17;100435.00;;;20.20
20736;BMP180;10528;52.124;5.196;2022-10-15T09:05:04;100443.00;;;20.30
20736;BMP180;10528;52.124;5.196;2022-10-15T09:10:53;100437.00;;;20.40
20736;BMP180;10528;52.124;5.196;2022-10-15T09:13:41;100429.00;;;20.50
20736;BMP180;10528;52.124;5.196;2022-10-15T09:16:21;100429.00;;;20.50
20736;BMP180;10528;52.124;5.196;2022-10-15T09:18:51;100426.00;;;20.50
20736;BMP180;10528;52.124;5.196;2022-10-15T09:21:23;100425.00;;;20.60
20736;BMP180;10528;52.124;5.196;2022-10-15T09:24:02;100420.00;;;20.60
20736;BMP180;10528;52.124;5.196;2022-10-15T09:26:42;100411.00;;;20.60
20736;BMP180;10528;52.124;5.196;2022-10-15T09:34:51;100406.00;;;20.60
20736;BMP180;10528;52.124;5.196;2022-10-15T09:42:56;100417.00;;;20.60
20736;BMP180;10528;52.124;5.196;2022-10-15T09:45:24;100410.00;;;20.60
20736;BMP180;10528;52.124;5.196;2022-10-15T09:47:56;100416.00;;;20.60
20736;BMP180;10528;52.124;5.196;2022-10-15T09:50:39;100420.00;;;20.50
20736;BMP180;10528;52.124;5.196;2022-10-15T09:53:17;100400.00;;;20.60
20736;BMP180;10528;52.124;5.196;2022-10-15T09:56:12;100408.00;;;20.50
20736;BMP180;10528;52.124;5.196;2022-10-15T09:58:54;100389.00;;;20.50
20736;BMP180;10528;52.124;5.196;2022-10-15T10:01:23;100388.00;;;20.50
20736;BMP180;10528;52.124;5.196;2022-10-15T10:04:17;100395.00;;;20.50
20736;BMP180;10528;52.124;5.196;2022-10-15T10:06:49;100384.00;;;20.50
20736;BMP180;10528;52.124;5.196;2022-10-15T10:09:35;100390.00;;;20.50
20736;BMP180;10528;52.124;5.196;2022-10-15T10:12:17;100392.00;;;20.50
20736;BMP180;10528;52.124;5.196;2022-10-15T10:14:59;100387.00;;;20.50
20736;BMP180;10528;52.124;5.196;2022-10-15T10:17:28;100384.00;;;20.50
20736;BMP180;10528;52.124;5.196;2022-10-15T10:20:18;100386.00;;;20.50
20736;BMP180;10528;52.124;5.196;2022-10-15T10:22:50;100392.00;;;20.60
20736;BMP180;10528;52.124;5.196;2022-10-15T10:25:38;100389.00;;;20.60
20736;BMP180;10528;52.124;5.196;2022-10-15T10:28:19;100384.00;;;20.60
20736;BMP180;10528;52.124;5.196;2022-10-15T10:30:51;100381.00;;;20.60
20736;BMP180;10528;52.124;5.196;2022-10-15T10:35:58;100375.00;;;20.70
20736;BMP180;10528;52.124;5.196;2022-10-15T10:38:33;100370.00;;;20.70
20736;BMP180;10528;52.124;5.196;2022-10-15T10:41:10;100380.00;;;20.70
20736;BMP180;10528;52.124;5.196;2022-10-15T10:43:53;100384.00;;;20.70
20736;BMP180;10528;52.124;5.196;2022-10-15T10:46:21;100386.00;;;20.70
20736;BMP180;10528;52.124;5.196;2022-10-15T10:48:52;100381.00;;;20.70
20736;BMP180;10528;52.124;5.196;2022-10-15T10:51:25;100368.00;;;20.70
20736;BMP180;10528;52.124;5.196;2022-10-15T10:54:04;100377.00;;;20.70
20736;BMP180;10528;52.124;5.196;2022-10-15T10:56:38;100382.00;;;20.70
20736;BMP180;10528;52.124;5.196;2022-10-15T10:59:29;100375.00;;;20.70
20736;BMP180;10528;52.124;5.196;2022-10-15T11:01:56;100378.00;;;20.70
20736;BMP180;10528;52.124;5.196;2022-10-15T11:04:27;100366.00;;;20.70
20736;BMP180;10528;52.124;5.196;2022-10-15T11:15:52;100356.00;;;20.70
20736;BMP180;10528;52.124;5.196;2022-10-15T11:24:36;100339.00;;;20.70
20736;BMP180;10528;52.124;5.196;2022-10-15T11:27:41;100340.00;;;20.70
20736;BMP180;10528;52.124;5.196;2022-10-15T11:30:48;100343.00;;;20.70
20736;BMP180;10528;52.124;5.196;2022-10-15T11:36:51;100341.00;;;20.70
20736;BMP180;10528;52.124;5.196;2022-10-15T11:47:58;100342.00;;;20.80
20736;BMP180;10528;52.124;5.196;2022-10-15T11:50:44;100324.00;;;20.80
20736;BMP180;10528;52.124;5.196;2022-10-15T11:53:47;100337.00;;;20.80
20736;BMP180;10528;52.124;5.196;2022-10-15T11:56:31;100335.00;;;20.90
20736;BMP180;10528;52.124;5.196;2022-10-15T12:01:53;100334.00;;;20.90
20736;BMP180;10528;52.124;5.196;2022-10-15T12:04:41;100335.00;;;20.90
20736;BMP180;10528;52.124;5.196;2022-10-15T12:07:19;100336.00;;;20.90
20736;BMP180;10528;52.124;5.196;2022-10-15T12:09:52;100339.00;;;21.00
20736;BMP180;10528;52.124;5.196;2022-10-15T12:18:48;100333.00;;;21.20
20736;BMP180;10528;52.124;5.196;2022-10-15T12:21:30;100322.00;;;21.20
20736;BMP180;10528;52.124;5.196;2022-10-15T12:23:59;100321.00;;;21.20
20736;BMP180;10528;52.124;5.196;2022-10-15T12:26:30;100332.00;;;21.20
20736;BMP180;10528;52.124;5.196;2022-10-15T12:29:03;100330.00;;;21.20
20736;BMP180;10528;52.124;5.196;2022-10-15T12:31:49;100331.00;;;21.30
20736;BMP180;10528;52.124;5.196;2022-10-15T12:34:31;100318.00;;;21.30
20736;BMP180;10528;52.124;5.196;2022-10-15T12:37:26;100324.00;;;21.30
20736;BMP180;10528;52.124;5.196;2022-10-15T12:40:02;100336.00;;;21.30
20736;BMP180;10528;52.124;5.196;2022-10-15T12:42:37;100336.00;;;21.30
20736;BMP180;10528;52.124;5.196;2022-10-15T12:45:20;100339.00;;;21.30
20736;BMP180;10528;52.124;5.196;2022-10-15T12:47:53;100335.00;;;21.40
20736;BMP180;10528;52.124;5.196;2022-10-15T12:50:33;100348.00;;;21.30
20736;BMP180;10528;52.124;5.196;2022-10-15T12:53:04;100340.00;;;21.40
20736;BMP180;10528;52.124;5.196;2022-10-15T12:55:38;100337.00;;;21.40
20736;BMP180;10528;52.124;5.196;2022-10-15T12:58:38;100344.00;;;21.30
20736;BMP180;10528;52.124;5.196;2022-10-15T13:01:25;100345.00;;;21.40
20736;BMP180;10528;52.124;5.196;2022-10-15T13:03:59;100345.00;;;21.30
20736;BMP180;10528;52.124;5.196;2022-10-15T13:06:35;100346.00;;;21.30
20736;BMP180;10528;52.124;5.196;2022-10-15T13:11:51;100354.00;;;21.40
20736;BMP180;10528;52.124;5.196;2022-10-15T13:14:40;100362.00;;;21.40
20736;BMP180;10528;52.124;5.196;2022-10-15T13:17:18;100359.00;;;21.40
20736;BMP180;10528;52.124;5.196;2022-10-15T13:20:05;100365.00;;;21.40
20736;BMP180;10528;52.124;5.196;2022-10-15T13:22:35;100364.00;;;21.40
20736;BMP180;10528;52.124;5.196;2022-10-15T13:25:02;100366.00;;;21.50
20736;BMP180;10528;52.124;5.196;2022-10-15T13:27:33;100362.00;;;21.50
20736;BMP180;10528;52.124;5.196;2022-10-15T13:32:44;100359.00;;;21.60
20736;BMP180;10528;52.124;5.196;2022-10-15T13:35:30;100350.00;;;21.60
20736;BMP180;10528;52.124;5.196;2022-10-15T13:37:59;100359.00;;;21.70
20736;BMP180;10528;52.124;5.196;2022-10-15T13:40:30;100378.00;;;21.70
20736;BMP180;10528;52.124;5.196;2022-10-15T13:43:00;100372.00;;;21.70
20736;BMP180;10528;52.124;5.196;2022-10-15T13:45:29;100374.00;;;21.70
20736;BMP180;10528;52.124;5.196;2022-10-15T13:47:56;100374.00;;;21.80
20736;BMP180;10528;52.124;5.196;2022-10-15T13:50:29;100378.00;;;21.80
20736;BMP180;10528;52.124;5.196;2022-10-15T13:53:24;100372.00;;;21.80
20736;BMP180;10528;52.124;5.196;2022-10-15T13:55:59;100375.00;;;21.80
20736;BMP180;10528;52.124;5.196;2022-10-15T13:58:34;100373.00;;;21.80
20736;BMP180;10528;52.124;5.196;2022-10-15T14:01:18;100385.00;;;21.80
20736;BMP180;10528;52.124;5.196;2022-10-15T14:03:55;100392.00;;;21.90
20736;BMP180;10528;52.124;5.196;2022-10-15T14:06:32;100385.00;;;21.90
20736;BMP180;10528;52.124;5.196;2022-10-15T14:09:28;100385.00;;;21.90
20736;BMP180;10528;52.124;5.196;2022-10-15T14:11:56;100406.00;;;21.90
20736;BMP180;10528;52.124;5.196;2022-10-15T14:14:41;100388.00;;;21.90
20736;BMP180;10528;52.124;5.196;2022-10-15T14:19:51;100400.00;;;21.90
20736;BMP180;10528;52.124;5.196;2022-10-15T14:22:38;100415.00;;;21.90
20736;BMP180;10528;52.124;5.196;2022-10-15T14:25:10;100419.00;;;21.90
20736;BMP180;10528;52.124;5.196;2022-10-15T14:27:44;100409.00;;;21.90
20736;BMP180;10528;52.124;5.196;2022-10-15T14:30:33;100424.00;;;21.90
20736;BMP180;10528;52.124;5.196;2022-10-15T14:33:02;100421.00;;;21.90
20736;BMP180;10528;52.124;5.196;2022-10-15T14:35:35;100434.00;;;21.90
20736;BMP180;10528;52.124;5.196;2022-10-15T14:40:33;100446.00;;;21.90
20736;BMP180;10528;52.124;5.196;2022-10-15T14:43:13;100447.00;;;21.90
20736;BMP180;10528;52.124;5.196;2022-10-15T14:48:31;100454.00;;;21.80
20736;BMP180;10528;52.124;5.196;2022-10-15T14:51:05;100446.00;;;21.80
20736;BMP180;10528;52.124;5.196;2022-10-15T14:53:38;100453.00;;;21.80
20736;BMP180;10528;52.124;5.196;2022-10-15T14:56:22;100454.00;;;21.70
20736;BMP180;10528;52.124;5.196;2022-10-15T14:58:55;100466.00;;;21.70
20736;BMP180;10528;52.124;5.196;2022-10-15T15:01:23;100466.00;;;21.70
20736;BMP180;10528;52.124;5.196;2022-10-15T15:03:55;100457.00;;;21.70
20736;BMP180;10528;52.124;5.196;2022-10-15T15:06:22;100473.00;;;21.70
20736;BMP180;10528;52.124;5.196;2022-10-15T15:08:49;100478.00;;;21.70
20736;BMP180;10528;52.124;5.196;2022-10-15T15:11:23;100476.00;;;21.70
20736;BMP180;10528;52.124;5.196;2022-10-15T15:13:51;100484.00;;;21.70
20736;BMP180;10528;52.124;5.196;2022-10-15T15:16:19;100481.00;;;21.70
20736;BMP180;10528;52.124;5.196;2022-10-15T15:18:46;100469.00;;;21.70
20736;BMP180;10528;52.124;5.196;2022-10-15T15:21:21;100472.00;;;21.70
20736;BMP180;10528;52.124;5.196;2022-10-15T15:23:49;100480.00;;;21.70
20736;BMP180;10528;52.124;5.196;2022-10-15T15:26:16;100477.00;;;21.60
20736;BMP180;10528;52.124;5.196;2022-10-15T15:28:43;100485.00;;;21.60
20736;BMP180;10528;52.124;5.196;2022-10-15T15:31:16;100487.00;;;21.60
20736;BMP180;10528;52.124;5.196;2022-10-15T15:33:44;100474.00;;;21.60
20736;BMP180;10528;52.124;5.196;2022-10-15T15:36:17;100469.00;;;21.60
20736;BMP180;10528;52.124;5.196;2022-10-15T15:38:49;100487.00;;;21.60
20736;BMP180;10528;52.124;5.196;2022-10-15T15:41:21;100490.00;;;21.60
20736;BMP180;10528;52.124;5.196;2022-10-15T15:43:50;100494.00;;;21.60
20736;BMP180;10528;52.124;5.196;2022-10-15T15:46:17;100499.00;;;21.50
20736;BMP180;10528;52.124;5.196;2022-10-15T15:48:44;100491.00;;;21.50
20736;BMP180;10528;52.124;5.196;2022-10-15T15:51:29;100491.00;;;21.40
20736;BMP180;10528;52.124;5.196;2022-10-15T15:53:58;100503.00;;;21.40
20736;BMP180;10528;52.124;5.196;2022-10-15T15:56:25;100501.00;;;21.40
20736;BMP180;10528;52.124;5.196;2022-10-15T15:58:51;100490.00;;;21.40